createdAt,value
2023-04-03T00:01:53.213Z,3.17
2023-04-03T00:04:22.558Z,4.77
2023-04-03T00:06:54.038Z,2.80
2023-04-03T00:09:25.851Z,2.80
2023-04-03T00:11:55.032Z,3.00
2023-04-03T00:14:25.037Z,2.93
2023-04-03T00:16:53.905Z,4.80
2023-04-03T00:19:24.378Z,3.00
2023-04-03T00:21:54.715Z,3.23
2023-04-03T00:24:26.332Z,3.73
2023-04-03T00:26:56.028Z,2.53
2023-04-03T00:29:26.475Z,3.47
2023-04-03T00:31:55.392Z,3.70
2023-04-03T00:34:24.734Z,3.80
2023-04-03T00:36:55.128Z,4.37
2023-04-03T00:43:07.969Z,3.77
2023-04-03T00:45:40.808Z,6.00
2023-04-03T00:48:11.890Z,3.47
2023-04-03T00:50:42.311Z,3.00
2023-04-03T00:53:13.749Z,4.27
2023-04-03T00:55:44.454Z,2.70
2023-04-03T00:58:15.057Z,5.23
2023-04-03T01:00:50.677Z,2.50
2023-04-03T01:03:21.876Z,3.50
2023-04-03T01:05:51.723Z,1.60
2023-04-03T01:08:21.307Z,4.50
2023-04-03T01:10:50.757Z,5.10
2023-04-03T01:13:27.190Z,3.23
2023-04-03T01:16:01.427Z,2.03
2023-04-03T01:18:32.596Z,2.23
2023-04-03T01:21:14.522Z,3.30
2023-04-03T01:23:58.523Z,2.57
2023-04-03T01:26:29.473Z,2.63
2023-04-03T01:28:59.065Z,2.10
2023-04-03T01:31:36.724Z,2.23
2023-04-03T01:34:09.003Z,3.53
2023-04-03T01:36:37.979Z,3.33
2023-04-03T01:39:08.558Z,2.43
2023-04-03T01:41:37.943Z,1.60
2023-04-03T01:44:08.626Z,2.00
2023-04-03T01:46:39.215Z,2.17
2023-04-03T01:49:09.737Z,2.30
2023-04-03T01:51:38.679Z,3.87
2023-04-03T01:54:07.664Z,1.97
2023-04-03T01:56:37.725Z,1.67
2023-04-03T01:59:07.358Z,2.33
2023-04-03T02:01:38.280Z,1.50
2023-04-03T02:04:09.455Z,2.47
2023-04-03T02:06:42.445Z,2.20
2023-04-03T02:09:13.300Z,1.50
2023-04-03T02:11:43.162Z,1.50
2023-04-03T02:14:12.765Z,1.73
2023-04-03T02:16:44.362Z,1.70
2023-04-03T02:19:16.777Z,1.70
2023-04-03T02:21:49.290Z,1.97
2023-04-03T02:24:19.399Z,1.20
2023-04-03T02:26:52.168Z,1.40
2023-04-03T02:29:24.616Z,1.90
2023-04-03T02:31:55.011Z,1.60
2023-04-03T02:34:27.248Z,1.40
2023-04-03T02:36:59.356Z,1.50
2023-04-03T02:39:29.227Z,1.27
2023-04-03T02:41:59.209Z,1.10
2023-04-03T02:44:30.096Z,1.53
2023-04-03T02:46:59.783Z,2.23
2023-04-03T02:49:28.810Z,1.30
2023-04-03T02:52:01.650Z,2.00
2023-04-03T02:54:32.653Z,1.53
2023-04-03T02:57:02.204Z,2.10
2023-04-03T02:59:31.284Z,2.93
2023-04-03T03:02:00.537Z,1.40
2023-04-03T03:04:32.730Z,3.23
2023-04-03T03:07:06.859Z,2.50
2023-04-03T03:09:38.038Z,1.17
2023-04-03T03:12:07.888Z,2.33
2023-04-03T03:14:37.783Z,1.27
2023-04-03T03:17:07.025Z,1.53
2023-04-03T03:19:39.562Z,1.83
2023-04-03T03:22:14.326Z,1.50
2023-04-03T03:24:43.441Z,1.43
2023-04-03T03:27:17.507Z,2.23
2023-04-03T03:29:49.173Z,2.00
2023-04-03T03:32:18.940Z,1.10
2023-04-03T03:34:48.652Z,2.90
2023-04-03T03:37:19.671Z,1.90
2023-04-03T03:39:55.572Z,1.87
2023-04-03T03:42:27.138Z,1.90
2023-04-03T03:44:56.423Z,2.70
2023-04-03T03:47:26.641Z,1.90
2023-04-03T03:50:00.151Z,2.80
2023-04-03T03:52:34.684Z,1.63
2023-04-03T03:55:04.387Z,1.80
2023-04-03T03:57:34.307Z,1.63
2023-04-03T04:00:07.749Z,1.60
2023-04-03T04:02:37.596Z,2.13
2023-04-03T04:05:07.635Z,3.20
2023-04-03T04:07:42.246Z,2.27
2023-04-03T04:10:15.027Z,1.10
2023-04-03T04:12:46.822Z,1.17
2023-04-03T04:15:17.326Z,1.70
2023-04-03T04:20:29.180Z,1.67
2023-04-03T04:23:11.354Z,3.10
2023-04-03T04:25:43.357Z,1.63
2023-04-03T04:28:15.668Z,1.47
2023-04-03T04:30:59.920Z,2.27
2023-04-03T04:33:29.477Z,1.93
2023-04-03T04:35:59.087Z,1.60
2023-04-03T04:38:36.590Z,3.20
2023-04-03T04:41:19.964Z,1.23
2023-04-03T04:43:55.481Z,1.73
2023-04-03T04:46:26.816Z,1.60
2023-04-03T04:48:58.292Z,1.33
2023-04-03T04:51:30.907Z,1.33
2023-04-03T04:57:07.027Z,2.17
2023-04-03T04:59:38.048Z,1.43
2023-04-03T05:02:07.724Z,2.60
2023-04-03T05:04:42.049Z,2.30
2023-04-03T05:07:13.272Z,1.87
2023-04-03T05:09:45.673Z,1.67
2023-04-03T05:12:18.850Z,1.60
2023-04-03T05:15:02.014Z,2.40
2023-04-03T05:17:46.154Z,1.10
2023-04-03T05:20:24.337Z,1.50
2023-04-03T05:23:07.348Z,1.67
2023-04-03T05:25:48.527Z,1.53
2023-04-03T05:28:17.812Z,1.67
2023-04-03T05:30:48.315Z,1.40
2023-04-03T05:33:28.197Z,1.80
2023-04-03T05:36:00.068Z,1.90
2023-04-03T05:38:30.434Z,2.13
2023-04-03T05:41:01.912Z,2.00
2023-04-03T05:43:31.063Z,2.97
2023-04-03T05:45:59.946Z,1.90
2023-04-03T05:48:29.773Z,0.73
2023-04-03T05:50:58.879Z,2.47
2023-04-03T05:53:31.204Z,2.70
2023-04-03T05:56:07.923Z,0.60
2023-04-03T05:58:37.380Z,0.97
2023-04-03T06:01:06.908Z,1.33
2023-04-03T06:03:38.575Z,0.97
2023-04-03T06:06:12.914Z,1.53
2023-04-03T06:08:42.520Z,1.17
2023-04-03T06:11:16.304Z,0.80
2023-04-03T06:16:39.509Z,1.57
2023-04-03T06:19:10.002Z,1.97
2023-04-03T06:21:44.842Z,2.60
2023-04-03T06:24:29.656Z,1.60
2023-04-03T06:27:20.287Z,0.93
2023-04-03T06:29:52.558Z,0.73
2023-04-03T06:32:22.074Z,1.30
2023-04-03T06:34:51.429Z,0.90
2023-04-03T06:37:21.090Z,1.20
2023-04-03T06:39:50.380Z,1.73
2023-04-03T06:42:22.522Z,0.80
2023-04-03T06:44:52.282Z,1.00
2023-04-03T06:47:21.255Z,1.30
2023-04-03T06:49:50.946Z,0.80
2023-04-03T06:52:20.838Z,0.77
2023-04-03T06:54:50.252Z,1.73
2023-04-03T06:57:23.154Z,1.10
2023-04-03T06:59:55.648Z,1.30
2023-04-03T07:02:24.570Z,1.23
2023-04-03T07:04:53.796Z,1.10
2023-04-03T07:07:25.392Z,1.40
2023-04-03T07:09:54.861Z,1.03
2023-04-03T07:12:27.603Z,0.80
2023-04-03T07:15:01.241Z,0.87
2023-04-03T07:17:30.471Z,1.10
2023-04-03T07:20:02.109Z,1.93
2023-04-03T07:22:31.045Z,1.07
2023-04-03T07:25:01.574Z,1.27
2023-04-03T07:27:33.160Z,0.80
2023-04-03T07:30:02.605Z,0.43
2023-04-03T07:32:32.596Z,1.37
2023-04-03T07:35:04.701Z,0.63
2023-04-03T07:37:34.075Z,0.80
2023-04-03T07:40:04.940Z,0.90
2023-04-03T07:42:38.196Z,0.63
2023-04-03T07:45:07.892Z,0.90
2023-04-03T07:47:37.373Z,1.20
2023-04-03T07:50:07.341Z,1.00
2023-04-03T07:52:38.845Z,0.93
2023-04-03T07:55:09.440Z,1.20
2023-04-03T07:57:40.846Z,0.40
2023-04-03T08:00:11.170Z,0.70
2023-04-03T08:02:40.765Z,1.03
2023-04-03T08:05:10.209Z,1.40
2023-04-03T08:07:40.698Z,0.80
2023-04-03T08:10:12.167Z,0.57
2023-04-03T08:12:45.647Z,0.77
2023-04-03T08:15:16.030Z,1.40
2023-04-03T08:17:45.476Z,0.90
2023-04-03T08:20:14.671Z,0.63
2023-04-03T08:22:43.814Z,0.70
2023-04-03T08:25:13.829Z,0.70
2023-04-03T08:27:45.743Z,0.80
2023-04-03T08:30:15.378Z,1.43
2023-04-03T08:32:45.527Z,0.93
2023-04-03T08:35:14.721Z,0.60
2023-04-03T08:37:44.051Z,0.77
2023-04-03T08:40:18.112Z,0.93
2023-04-03T08:42:54.768Z,0.40
2023-04-03T08:45:26.826Z,0.53
2023-04-03T08:48:00.640Z,0.40
2023-04-03T08:50:33.078Z,0.50
2023-04-03T08:53:02.356Z,0.67
2023-04-03T08:55:32.467Z,0.70
2023-04-03T08:58:05.686Z,0.50
2023-04-03T09:00:38.878Z,0.40
2023-04-03T09:03:09.572Z,0.57
2023-04-03T09:05:44.460Z,0.43
2023-04-03T09:08:18.277Z,1.30
2023-04-03T09:10:47.446Z,0.60
2023-04-03T09:13:24.912Z,0.40
2023-04-03T09:15:54.506Z,0.47
2023-04-03T09:18:25.201Z,0.63
2023-04-03T09:21:00.253Z,0.57
2023-04-03T09:23:32.272Z,0.63
2023-04-03T09:26:04.946Z,0.63
2023-04-03T09:28:46.907Z,0.97
2023-04-03T09:31:21.764Z,0.73
2023-04-03T09:33:54.835Z,1.03
2023-04-03T09:36:40.915Z,1.07
2023-04-03T09:39:13.916Z,1.53
2023-04-03T09:41:43.178Z,0.83
2023-04-03T09:44:25.899Z,0.60
2023-04-03T09:46:55.184Z,0.43
2023-04-03T09:49:25.237Z,1.37
2023-04-03T09:51:55.071Z,0.83
2023-04-03T09:54:32.097Z,0.77
2023-04-03T09:57:03.971Z,0.70
2023-04-03T09:59:35.668Z,1.07
2023-04-03T10:02:25.622Z,0.80
2023-04-03T10:05:08.399Z,0.90
2023-04-03T10:07:46.453Z,0.57
2023-04-03T10:10:25.051Z,0.93
2023-04-03T10:13:14.321Z,0.60
2023-04-03T10:15:56.359Z,0.73
2023-04-03T10:18:33.932Z,0.73
2023-04-03T10:21:07.750Z,1.00
2023-04-03T10:23:50.535Z,0.80
2023-04-03T10:26:25.926Z,0.50
2023-04-03T10:29:03.543Z,1.43
2023-04-03T10:31:38.540Z,0.60
2023-04-03T10:34:09.041Z,0.97
2023-04-03T10:36:45.340Z,0.60
2023-04-03T10:39:19.894Z,0.63
2023-04-03T10:41:57.998Z,1.50
2023-04-03T10:44:43.664Z,0.70
2023-04-03T10:47:19.337Z,0.90
2023-04-03T10:49:59.853Z,1.00
2023-04-03T10:52:38.384Z,0.67
2023-04-03T10:55:20.270Z,0.93
2023-04-03T10:57:53.698Z,1.70
2023-04-03T11:00:25.056Z,0.90
2023-04-03T11:02:58.163Z,0.50
2023-04-03T11:05:32.390Z,0.90
2023-04-03T11:08:03.222Z,0.77
2023-04-03T11:10:39.719Z,0.67
2023-04-03T11:13:12.114Z,0.97
2023-04-03T11:15:41.424Z,1.17
2023-04-03T11:18:19.859Z,1.13
2023-04-03T11:20:53.838Z,0.60
2023-04-03T11:23:25.643Z,0.50
2023-04-03T11:25:59.425Z,0.70
2023-04-03T11:28:32.573Z,0.60
2023-04-03T11:31:07.239Z,0.83
2023-04-03T11:33:41.497Z,0.77
2023-04-03T11:36:25.676Z,0.87
2023-04-03T11:39:05.665Z,0.97
2023-04-03T11:41:36.037Z,1.10
2023-04-03T11:44:07.567Z,0.70
2023-04-03T11:46:57.876Z,0.60
2023-04-03T11:49:45.736Z,0.93
2023-04-03T11:52:17.027Z,0.90
2023-04-03T11:54:54.550Z,0.57
2023-04-03T11:57:44.380Z,0.60
2023-04-03T12:00:32.271Z,1.07
2023-04-03T12:03:07.268Z,0.80
2023-04-03T12:05:37.041Z,0.70
2023-04-03T12:08:26.911Z,0.90
2023-04-03T12:11:18.880Z,0.77
2023-04-03T12:14:06.839Z,0.70
2023-04-03T12:16:47.548Z,0.67
2023-04-03T12:19:46.506Z,1.60
2023-04-03T12:22:22.026Z,0.80
2023-04-03T12:24:55.848Z,0.80
2023-04-03T12:27:34.366Z,0.50
2023-04-03T12:30:07.712Z,0.80
2023-04-03T12:32:47.104Z,1.00
2023-04-03T12:35:27.815Z,1.27
2023-04-03T12:38:15.058Z,0.90
2023-04-03T12:40:48.887Z,0.60
2023-04-03T12:43:24.477Z,0.97
2023-04-03T12:45:56.431Z,1.20
2023-04-03T12:48:30.918Z,0.70
2023-04-03T12:51:02.411Z,0.63
2023-04-03T12:53:35.552Z,1.97
2023-04-03T12:56:20.275Z,1.17
2023-04-03T12:58:53.295Z,2.27
2023-04-03T13:01:26.082Z,1.13
2023-04-03T13:03:58.653Z,0.90
2023-04-03T13:06:31.150Z,1.07
2023-04-03T13:09:02.124Z,0.57
2023-04-03T13:11:34.669Z,0.70
2023-04-03T13:14:08.255Z,1.73
2023-04-03T13:16:40.846Z,0.80
2023-04-03T13:19:21.905Z,0.60
2023-04-03T13:22:01.186Z,1.37
2023-04-03T13:24:31.850Z,0.87
2023-04-03T13:27:01.493Z,0.90
2023-04-03T13:29:33.293Z,1.07
2023-04-03T13:32:03.257Z,1.03
2023-04-03T13:34:39.610Z,0.87
2023-04-03T13:37:09.583Z,0.93
2023-04-03T13:39:39.412Z,1.57
2023-04-03T13:42:19.242Z,0.90
2023-04-03T13:44:49.744Z,0.70
2023-04-03T13:47:24.152Z,0.50
2023-04-03T13:50:06.138Z,0.73
2023-04-03T13:52:37.242Z,0.50
2023-04-03T13:55:18.899Z,1.07
2023-04-03T13:57:55.819Z,0.67
2023-04-03T14:00:32.337Z,0.90
2023-04-03T14:03:02.441Z,0.60
2023-04-03T14:05:34.604Z,0.93
2023-04-03T14:08:03.782Z,0.53
2023-04-03T14:10:33.906Z,0.73
2023-04-03T14:13:03.979Z,1.10
2023-04-03T14:15:34.651Z,0.63
2023-04-03T14:18:05.754Z,0.60
2023-04-03T14:20:37.598Z,1.00
2023-04-03T14:23:07.497Z,0.70
2023-04-03T14:25:38.497Z,0.83
2023-04-03T14:28:16.220Z,1.37
2023-04-03T14:30:45.885Z,1.70
2023-04-03T14:33:17.183Z,1.73
2023-04-03T14:35:49.465Z,0.80
2023-04-03T14:38:26.636Z,0.80
2023-04-03T14:41:00.899Z,0.60
2023-04-03T14:43:37.700Z,0.60
2023-04-03T14:46:21.914Z,0.60
2023-04-03T14:48:57.314Z,1.17
2023-04-03T14:51:28.007Z,0.87
2023-04-03T14:53:58.607Z,1.50
2023-04-03T14:56:29.234Z,0.60
2023-04-03T14:59:00.255Z,0.87
2023-04-03T15:01:31.643Z,0.70
2023-04-03T15:04:02.238Z,1.30
2023-04-03T15:06:41.574Z,1.07
2023-04-03T15:09:17.453Z,1.00
2023-04-03T15:11:47.624Z,1.27
2023-04-03T15:14:29.692Z,0.70
2023-04-03T15:17:07.562Z,1.23
2023-04-03T15:19:39.623Z,1.70
2023-04-03T15:22:12.256Z,0.83
2023-04-03T15:24:41.296Z,1.07
2023-04-03T15:27:10.643Z,0.97
2023-04-03T15:29:41.729Z,1.03
2023-04-03T15:32:13.723Z,1.53
2023-04-03T15:34:46.183Z,0.83
2023-04-03T15:37:22.598Z,0.93
2023-04-03T15:39:54.972Z,1.67
2023-04-03T15:42:24.876Z,1.23
2023-04-03T15:44:55.333Z,0.90
2023-04-03T15:47:26.673Z,1.10
2023-04-03T15:49:57.342Z,0.67
2023-04-03T15:52:32.431Z,1.30
2023-04-03T15:55:02.156Z,2.23
2023-04-03T16:00:01.525Z,1.10
2023-04-03T16:02:33.189Z,0.77
2023-04-03T16:05:02.507Z,1.00
2023-04-03T16:07:37.019Z,0.90
2023-04-03T16:10:07.677Z,0.93
2023-04-03T16:12:36.887Z,1.63
2023-04-03T16:15:09.721Z,1.13
2023-04-03T16:17:40.638Z,0.90
2023-04-03T16:20:14.968Z,1.10
2023-04-03T16:23:01.538Z,0.63
2023-04-03T16:25:37.930Z,0.70
2023-04-03T16:28:21.906Z,0.90
2023-04-03T16:30:56.428Z,2.00
2023-04-03T16:36:23.199Z,1.57
2023-04-03T16:41:38.991Z,0.90
2023-04-03T17:28:37.090Z,0.63
2023-04-03T17:33:51.986Z,1.80
2023-04-03T17:39:05.931Z,0.90
2023-04-03T17:41:49.307Z,0.80
2023-04-03T19:20:22.348Z,1.17
2023-04-03T19:25:38.054Z,1.03
2023-04-03T19:57:31.308Z,1.83
2023-04-03T21:25:00.960Z,1.53
2023-04-03T21:33:01.528Z,1.10
2023-04-03T21:38:15.922Z,2.27
2023-04-03T21:40:47.448Z,1.30
2023-04-03T21:46:02.798Z,1.00
2023-04-03T21:48:32.535Z,2.23
2023-04-03T21:54:02.790Z,1.73
2023-04-03T21:59:31.488Z,1.10
2023-04-03T22:02:16.017Z,1.80
2023-04-03T22:04:47.923Z,1.93
2023-04-03T22:10:17.644Z,1.70
2023-04-03T22:15:44.027Z,1.03
2023-04-03T22:18:28.615Z,2.23
2023-04-03T22:21:13.428Z,1.10
2023-04-03T22:23:42.931Z,2.03
2023-04-03T22:32:32.341Z,1.20
2023-04-03T22:35:02.117Z,1.30
2023-04-03T22:37:35.295Z,1.00
2023-04-03T22:40:05.541Z,1.53
2023-04-03T22:42:49.796Z,1.50
2023-04-03T22:48:11.874Z,1.80
2023-04-03T22:53:29.985Z,1.40
2023-04-03T22:56:13.551Z,1.70
2023-04-03T22:58:45.553Z,3.00
2023-04-03T23:03:59.658Z,1.67
2023-04-03T23:06:30.547Z,1.17
2023-04-03T23:44:11.389Z,1.67
2023-04-03T23:46:43.069Z,1.00
2023-04-03T23:49:13.251Z,1.63
2023-04-03T23:51:45.983Z,2.07
2023-04-03T23:54:16.528Z,2.60
2023-04-03T23:56:45.753Z,2.03
2023-04-03T23:59:49.815Z,1.30
